sensor_id;sensor_type;location;lat;lon;timestamp;P1;durP1;ratioP1;P2;durP2;ratioP2
16442;SDS011;8331;51.654;14.376;2022-11-20T00:00:38;12.00;;;9.53;;
16442;SDS011;8331;51.654;14.376;2022-11-20T00:03:05;11.87;;;9.53;;
16442;SDS011;8331;51.654;14.376;2022-11-20T00:05:32;12.60;;;9.70;;
16442;SDS011;8331;51.654;14.376;2022-11-20T00:07:58;10.70;;;9.53;;
16442;SDS011;8331;51.654;14.376;2022-11-20T00:10:25;11.37;;;9.40;;
16442;SDS011;8331;51.654;14.376;2022-11-20T00:12:51;11.27;;;9.67;;
16442;SDS011;8331;51.654;14.376;2022-11-20T00:15:18;11.40;;;9.40;;
16442;SDS011;8331;51.654;14.376;2022-11-20T00:17:44;12.03;;;9.53;;
16442;SDS011;8331;51.654;14.376;2022-11-20T00:20:11;14.63;;;10.27;;
16442;SDS011;8331;51.654;14.376;2022-11-20T00:22:38;12.27;;;10.00;;
16442;SDS011;8331;51.654;14.376;2022-11-20T00:25:04;15.53;;;10.40;;
16442;SDS011;8331;51.654;14.376;2022-11-20T00:27:31;11.67;;;9.90;;
16442;SDS011;8331;51.654;14.376;2022-11-20T00:29:57;12.60;;;10.30;;
16442;SDS011;8331;51.654;14.376;2022-11-20T00:32:24;14.47;;;11.30;;
16442;SDS011;8331;51.654;14.376;2022-11-20T00:34:51;13.60;;;10.37;;
16442;SDS011;8331;51.654;14.376;2022-11-20T00:37:17;13.13;;;10.87;;
16442;SDS011;8331;51.654;14.376;2022-11-20T00:39:44;13.53;;;10.53;;
16442;SDS011;8331;51.654;14.376;2022-11-20T00:42:10;13.57;;;10.17;;
16442;SDS011;8331;51.654;14.376;2022-11-20T00:44:37;13.93;;;10.63;;
16442;SDS011;8331;51.654;14.376;2022-11-20T00:47:04;15.57;;;10.93;;
16442;SDS011;8331;51.654;14.376;2022-11-20T00:49:30;16.97;;;11.63;;
16442;SDS011;8331;51.654;14.376;2022-11-20T00:51:57;14.13;;;11.27;;
16442;SDS011;8331;51.654;14.376;2022-11-20T00:54:23;13.40;;;10.23;;
16442;SDS011;8331;51.654;14.376;2022-11-20T00:56:52;13.33;;;10.17;;
16442;SDS011;8331;51.654;14.376;2022-11-20T00:59:18;13.70;;;10.87;;
16442;SDS011;8331;51.654;14.376;2022-11-20T01:01:45;13.27;;;10.50;;
16442;SDS011;8331;51.654;14.376;2022-11-20T01:04:12;14.20;;;11.27;;
16442;SDS011;8331;51.654;14.376;2022-11-20T01:06:39;13.10;;;10.70;;
16442;SDS011;8331;51.654;14.376;2022-11-20T01:09:06;13.77;;;10.67;;
16442;SDS011;8331;51.654;14.376;2022-11-20T01:11:35;13.87;;;10.53;;
16442;SDS011;8331;51.654;14.376;2022-11-20T01:14:02;14.60;;;10.90;;
16442;SDS011;8331;51.654;14.376;2022-11-20T01:18:56;14.83;;;10.90;;
16442;SDS011;8331;51.654;14.376;2022-11-20T01:21:30;13.10;;;10.57;;
16442;SDS011;8331;51.654;14.376;2022-11-20T01:23:57;12.13;;;10.37;;
16442;SDS011;8331;51.654;14.376;2022-11-20T01:26:25;14.30;;;10.93;;
16442;SDS011;8331;51.654;14.376;2022-11-20T01:28:52;16.07;;;11.50;;
16442;SDS011;8331;51.654;14.376;2022-11-20T01:31:20;14.03;;;10.07;;
16442;SDS011;8331;51.654;14.376;2022-11-20T01:33:49;13.73;;;10.67;;
16442;SDS011;8331;51.654;14.376;2022-11-20T01:36:16;15.90;;;11.83;;
16442;SDS011;8331;51.654;14.376;2022-11-20T01:38:43;13.70;;;10.93;;
16442;SDS011;8331;51.654;14.376;2022-11-20T01:41:10;14.87;;;11.93;;
16442;SDS011;8331;51.654;14.376;2022-11-20T01:43:58;16.23;;;12.30;;
16442;SDS011;8331;51.654;14.376;2022-11-20T01:46:24;17.17;;;12.30;;
16442;SDS011;8331;51.654;14.376;2022-11-20T01:51:24;14.43;;;11.30;;
16442;SDS011;8331;51.654;14.376;2022-11-20T01:53:54;17.13;;;11.97;;
16442;SDS011;8331;51.654;14.376;2022-11-20T01:56:21;16.03;;;11.50;;
16442;SDS011;8331;51.654;14.376;2022-11-20T01:58:50;17.00;;;12.13;;
16442;SDS011;8331;51.654;14.376;2022-11-20T02:01:17;15.87;;;10.97;;
16442;SDS011;8331;51.654;14.376;2022-11-20T02:03:44;14.03;;;11.13;;
16442;SDS011;8331;51.654;14.376;2022-11-20T02:06:19;16.43;;;11.50;;
16442;SDS011;8331;51.654;14.376;2022-11-20T02:08:48;14.83;;;10.87;;
16442;SDS011;8331;51.654;14.376;2022-11-20T02:11:14;16.10;;;11.47;;
16442;SDS011;8331;51.654;14.376;2022-11-20T02:13:41;15.40;;;11.13;;
16442;SDS011;8331;51.654;14.376;2022-11-20T02:16:21;16.93;;;12.07;;
16442;SDS011;8331;51.654;14.376;2022-11-20T02:18:48;16.40;;;11.67;;
16442;SDS011;8331;51.654;14.376;2022-11-20T02:24:00;14.97;;;11.60;;
16442;SDS011;8331;51.654;14.376;2022-11-20T02:26:28;17.17;;;12.57;;
16442;SDS011;8331;51.654;14.376;2022-11-20T02:28:56;18.13;;;11.77;;
16442;SDS011;8331;51.654;14.376;2022-11-20T02:31:23;16.87;;;11.83;;
16442;SDS011;8331;51.654;14.376;2022-11-20T02:33:58;19.13;;;11.93;;
16442;SDS011;8331;51.654;14.376;2022-11-20T02:36:26;16.60;;;11.83;;
16442;SDS011;8331;51.654;14.376;2022-11-20T02:38:53;19.40;;;12.87;;
16442;SDS011;8331;51.654;14.376;2022-11-20T02:41:20;17.43;;;12.50;;
16442;SDS011;8331;51.654;14.376;2022-11-20T02:43:46;16.80;;;12.47;;
16442;SDS011;8331;51.654;14.376;2022-11-20T02:46:13;16.73;;;12.20;;
16442;SDS011;8331;51.654;14.376;2022-11-20T02:48:39;19.00;;;13.03;;
16442;SDS011;8331;51.654;14.376;2022-11-20T02:51:06;21.57;;;12.80;;
16442;SDS011;8331;51.654;14.376;2022-11-20T02:53:33;19.57;;;13.60;;
16442;SDS011;8331;51.654;14.376;2022-11-20T02:55:59;18.37;;;13.13;;
16442;SDS011;8331;51.654;14.376;2022-11-20T02:58:26;19.03;;;13.57;;
16442;SDS011;8331;51.654;14.376;2022-11-20T03:00:52;21.23;;;13.57;;
16442;SDS011;8331;51.654;14.376;2022-11-20T03:03:19;21.17;;;13.17;;
16442;SDS011;8331;51.654;14.376;2022-11-20T03:05:45;19.67;;;13.33;;
16442;SDS011;8331;51.654;14.376;2022-11-20T03:08:12;20.53;;;13.77;;
16442;SDS011;8331;51.654;14.376;2022-11-20T03:10:38;21.90;;;14.30;;
16442;SDS011;8331;51.654;14.376;2022-11-20T03:13:05;17.87;;;12.73;;
16442;SDS011;8331;51.654;14.376;2022-11-20T03:15:31;21.83;;;13.30;;
16442;SDS011;8331;51.654;14.376;2022-11-20T03:17:58;19.73;;;13.20;;
16442;SDS011;8331;51.654;14.376;2022-11-20T03:20:24;21.73;;;14.17;;
16442;SDS011;8331;51.654;14.376;2022-11-20T03:22:52;22.53;;;13.90;;
16442;SDS011;8331;51.654;14.376;2022-11-20T03:25:19;16.67;;;12.73;;
16442;SDS011;8331;51.654;14.376;2022-11-20T03:27:46;20.60;;;13.93;;
16442;SDS011;8331;51.654;14.376;2022-11-20T03:30:13;19.43;;;12.53;;
16442;SDS011;8331;51.654;14.376;2022-11-20T03:32:39;18.47;;;13.07;;
16442;SDS011;8331;51.654;14.376;2022-11-20T03:35:06;19.90;;;13.17;;
16442;SDS011;8331;51.654;14.376;2022-11-20T03:37:33;18.67;;;13.30;;
16442;SDS011;8331;51.654;14.376;2022-11-20T03:39:59;20.63;;;13.57;;
16442;SDS011;8331;51.654;14.376;2022-11-20T03:42:26;20.57;;;13.40;;
16442;SDS011;8331;51.654;14.376;2022-11-20T03:45:11;21.23;;;13.40;;
16442;SDS011;8331;51.654;14.376;2022-11-20T03:47:38;20.70;;;13.53;;
16442;SDS011;8331;51.654;14.376;2022-11-20T03:50:05;18.13;;;12.70;;
16442;SDS011;8331;51.654;14.376;2022-11-20T03:52:31;18.77;;;12.00;;
16442;SDS011;8331;51.654;14.376;2022-11-20T03:54:58;21.77;;;13.33;;
16442;SDS011;8331;51.654;14.376;2022-11-20T03:57:24;19.40;;;12.60;;
16442;SDS011;8331;51.654;14.376;2022-11-20T03:59:51;20.40;;;13.13;;
16442;SDS011;8331;51.654;14.376;2022-11-20T04:02:18;18.40;;;12.73;;
16442;SDS011;8331;51.654;14.376;2022-11-20T04:04:44;19.07;;;13.00;;
16442;SDS011;8331;51.654;14.376;2022-11-20T04:07:11;19.50;;;12.87;;
16442;SDS011;8331;51.654;14.376;2022-11-20T04:09:37;19.97;;;13.67;;
16442;SDS011;8331;51.654;14.376;2022-11-20T04:12:04;16.07;;;11.47;;
16442;SDS011;8331;51.654;14.376;2022-11-20T04:14:30;18.43;;;12.67;;
16442;SDS011;8331;51.654;14.376;2022-11-20T04:16:57;20.17;;;13.10;;
16442;SDS011;8331;51.654;14.376;2022-11-20T04:19:23;20.80;;;13.50;;
16442;SDS011;8331;51.654;14.376;2022-11-20T04:21:50;18.67;;;12.37;;
16442;SDS011;8331;51.654;14.376;2022-11-20T04:24:16;22.77;;;13.67;;
16442;SDS011;8331;51.654;14.376;2022-11-20T04:26:43;18.33;;;12.90;;
16442;SDS011;8331;51.654;14.376;2022-11-20T04:29:10;18.50;;;12.57;;
16442;SDS011;8331;51.654;14.376;2022-11-20T04:31:37;17.83;;;12.33;;
16442;SDS011;8331;51.654;14.376;2022-11-20T04:34:04;17.97;;;11.90;;
16442;SDS011;8331;51.654;14.376;2022-11-20T04:36:31;19.57;;;12.77;;
16442;SDS011;8331;51.654;14.376;2022-11-20T04:38:59;19.73;;;12.87;;
16442;SDS011;8331;51.654;14.376;2022-11-20T04:41:35;19.93;;;12.90;;
16442;SDS011;8331;51.654;14.376;2022-11-20T04:44:03;20.30;;;12.63;;
16442;SDS011;8331;51.654;14.376;2022-11-20T04:46:31;19.30;;;12.37;;
16442;SDS011;8331;51.654;14.376;2022-11-20T04:48:58;16.47;;;11.83;;
16442;SDS011;8331;51.654;14.376;2022-11-20T04:51:25;18.77;;;12.23;;
16442;SDS011;8331;51.654;14.376;2022-11-20T04:53:51;19.27;;;12.63;;
16442;SDS011;8331;51.654;14.376;2022-11-20T04:56:18;19.03;;;11.87;;
16442;SDS011;8331;51.654;14.376;2022-11-20T04:58:44;19.77;;;12.50;;
16442;SDS011;8331;51.654;14.376;2022-11-20T05:01:15;17.90;;;12.17;;
16442;SDS011;8331;51.654;14.376;2022-11-20T05:03:42;17.47;;;11.77;;
16442;SDS011;8331;51.654;14.376;2022-11-20T05:06:11;16.27;;;11.37;;
16442;SDS011;8331;51.654;14.376;2022-11-20T05:08:37;20.17;;;11.63;;
16442;SDS011;8331;51.654;14.376;2022-11-20T05:11:06;18.37;;;11.90;;
16442;SDS011;8331;51.654;14.376;2022-11-20T05:13:32;16.50;;;11.03;;
16442;SDS011;8331;51.654;14.376;2022-11-20T05:16:03;18.37;;;11.50;;
16442;SDS011;8331;51.654;14.376;2022-11-20T05:18:30;17.43;;;12.03;;
16442;SDS011;8331;51.654;14.376;2022-11-20T05:20:57;17.73;;;11.93;;
16442;SDS011;8331;51.654;14.376;2022-11-20T05:23:23;18.23;;;11.53;;
16442;SDS011;8331;51.654;14.376;2022-11-20T05:25:53;18.40;;;11.77;;
16442;SDS011;8331;51.654;14.376;2022-11-20T05:28:25;19.03;;;11.80;;
16442;SDS011;8331;51.654;14.376;2022-11-20T05:30:52;20.77;;;12.67;;
16442;SDS011;8331;51.654;14.376;2022-11-20T05:33:18;19.43;;;11.90;;
16442;SDS011;8331;51.654;14.376;2022-11-20T05:35:45;21.20;;;12.93;;
16442;SDS011;8331;51.654;14.376;2022-11-20T05:38:11;21.70;;;13.77;;
16442;SDS011;8331;51.654;14.376;2022-11-20T05:40:38;24.40;;;12.77;;
16442;SDS011;8331;51.654;14.376;2022-11-20T05:43:04;21.37;;;13.00;;
16442;SDS011;8331;51.654;14.376;2022-11-20T05:45:31;18.73;;;12.47;;
16442;SDS011;8331;51.654;14.376;2022-11-20T05:47:58;20.67;;;13.33;;
16442;SDS011;8331;51.654;14.376;2022-11-20T05:50:26;23.43;;;13.73;;
16442;SDS011;8331;51.654;14.376;2022-11-20T05:52:53;21.67;;;14.17;;
16442;SDS011;8331;51.654;14.376;2022-11-20T05:55:19;20.90;;;14.33;;
16442;SDS011;8331;51.654;14.376;2022-11-20T05:57:46;22.17;;;13.57;;
16442;SDS011;8331;51.654;14.376;2022-11-20T06:00:12;22.37;;;13.27;;
16442;SDS011;8331;51.654;14.376;2022-11-20T06:02:39;20.03;;;13.17;;
16442;SDS011;8331;51.654;14.376;2022-11-20T06:05:06;21.30;;;13.40;;
16442;SDS011;8331;51.654;14.376;2022-11-20T06:07:32;22.23;;;12.57;;
16442;SDS011;8331;51.654;14.376;2022-11-20T06:09:59;19.27;;;13.13;;
16442;SDS011;8331;51.654;14.376;2022-11-20T06:12:26;19.47;;;12.70;;
16442;SDS011;8331;51.654;14.376;2022-11-20T06:14:52;19.70;;;12.60;;
16442;SDS011;8331;51.654;14.376;2022-11-20T06:17:19;24.23;;;14.03;;
16442;SDS011;8331;51.654;14.376;2022-11-20T06:19:45;19.30;;;13.10;;
16442;SDS011;8331;51.654;14.376;2022-11-20T06:22:12;20.33;;;12.30;;
16442;SDS011;8331;51.654;14.376;2022-11-20T06:24:38;21.03;;;12.90;;
16442;SDS011;8331;51.654;14.376;2022-11-20T06:27:05;21.87;;;13.20;;
16442;SDS011;8331;51.654;14.376;2022-11-20T06:29:31;21.47;;;12.47;;
16442;SDS011;8331;51.654;14.376;2022-11-20T06:31:59;19.47;;;12.13;;
16442;SDS011;8331;51.654;14.376;2022-11-20T06:34:26;20.30;;;11.73;;
16442;SDS011;8331;51.654;14.376;2022-11-20T06:36:52;21.30;;;13.00;;
16442;SDS011;8331;51.654;14.376;2022-11-20T06:39:19;20.13;;;12.93;;
16442;SDS011;8331;51.654;14.376;2022-11-20T06:41:46;20.73;;;13.13;;
16442;SDS011;8331;51.654;14.376;2022-11-20T06:44:12;19.43;;;13.03;;
16442;SDS011;8331;51.654;14.376;2022-11-20T06:46:39;20.50;;;12.83;;
16442;SDS011;8331;51.654;14.376;2022-11-20T06:49:06;22.77;;;13.50;;
16442;SDS011;8331;51.654;14.376;2022-11-20T06:51:32;19.43;;;12.10;;
16442;SDS011;8331;51.654;14.376;2022-11-20T06:53:59;21.80;;;13.53;;
16442;SDS011;8331;51.654;14.376;2022-11-20T06:56:27;23.57;;;13.87;;
16442;SDS011;8331;51.654;14.376;2022-11-20T06:58:54;22.33;;;13.80;;
16442;SDS011;8331;51.654;14.376;2022-11-20T07:01:20;21.23;;;13.40;;
16442;SDS011;8331;51.654;14.376;2022-11-20T07:03:48;21.27;;;13.37;;
16442;SDS011;8331;51.654;14.376;2022-11-20T07:06:19;22.47;;;14.90;;
16442;SDS011;8331;51.654;14.376;2022-11-20T07:08:46;21.23;;;13.07;;
16442;SDS011;8331;51.654;14.376;2022-11-20T07:11:13;23.87;;;14.57;;
16442;SDS011;8331;51.654;14.376;2022-11-20T07:13:40;23.50;;;14.83;;
16442;SDS011;8331;51.654;14.376;2022-11-20T07:16:07;22.87;;;15.37;;
16442;SDS011;8331;51.654;14.376;2022-11-20T07:18:34;23.03;;;14.63;;
16442;SDS011;8331;51.654;14.376;2022-11-20T07:21:01;26.00;;;15.57;;
16442;SDS011;8331;51.654;14.376;2022-11-20T07:23:28;25.10;;;14.87;;
16442;SDS011;8331;51.654;14.376;2022-11-20T07:25:54;26.00;;;15.17;;
16442;SDS011;8331;51.654;14.376;2022-11-20T07:28:21;26.30;;;16.53;;
16442;SDS011;8331;51.654;14.376;2022-11-20T07:30:53;30.97;;;19.03;;
16442;SDS011;8331;51.654;14.376;2022-11-20T07:33:20;24.73;;;14.30;;
16442;SDS011;8331;51.654;14.376;2022-11-20T07:35:46;24.43;;;14.63;;
16442;SDS011;8331;51.654;14.376;2022-11-20T07:38:13;23.07;;;14.50;;
16442;SDS011;8331;51.654;14.376;2022-11-20T07:40:39;24.10;;;14.77;;
16442;SDS011;8331;51.654;14.376;2022-11-20T07:43:06;25.93;;;15.67;;
16442;SDS011;8331;51.654;14.376;2022-11-20T07:45:32;30.47;;;16.47;;
16442;SDS011;8331;51.654;14.376;2022-11-20T07:47:59;25.30;;;15.57;;
16442;SDS011;8331;51.654;14.376;2022-11-20T07:50:25;25.07;;;14.83;;
16442;SDS011;8331;51.654;14.376;2022-11-20T07:52:52;25.23;;;15.03;;
16442;SDS011;8331;51.654;14.376;2022-11-20T07:55:26;24.13;;;14.80;;
16442;SDS011;8331;51.654;14.376;2022-11-20T07:57:55;23.20;;;14.43;;
16442;SDS011;8331;51.654;14.376;2022-11-20T08:00:23;25.80;;;14.27;;
16442;SDS011;8331;51.654;14.376;2022-11-20T08:02:49;24.33;;;15.13;;
16442;SDS011;8331;51.654;14.376;2022-11-20T08:05:16;22.90;;;14.87;;
16442;SDS011;8331;51.654;14.376;2022-11-20T08:07:43;23.83;;;14.37;;
16442;SDS011;8331;51.654;14.376;2022-11-20T08:10:11;21.33;;;13.43;;
16442;SDS011;8331;51.654;14.376;2022-11-20T08:12:44;20.27;;;13.10;;
16442;SDS011;8331;51.654;14.376;2022-11-20T08:15:30;21.53;;;14.80;;
16442;SDS011;8331;51.654;14.376;2022-11-20T08:18:14;30.83;;;19.07;;
16442;SDS011;8331;51.654;14.376;2022-11-20T08:20:56;19.90;;;13.07;;
16442;SDS011;8331;51.654;14.376;2022-11-20T08:23:22;22.87;;;14.93;;
16442;SDS011;8331;51.654;14.376;2022-11-20T08:25:49;20.80;;;13.27;;
16442;SDS011;8331;51.654;14.376;2022-11-20T08:28:17;22.53;;;14.07;;
16442;SDS011;8331;51.654;14.376;2022-11-20T08:30:47;23.43;;;13.93;;
16442;SDS011;8331;51.654;14.376;2022-11-20T08:33:14;23.90;;;14.10;;
16442;SDS011;8331;51.654;14.376;2022-11-20T08:35:41;22.23;;;14.23;;
16442;SDS011;8331;51.654;14.376;2022-11-20T08:38:08;21.33;;;15.07;;
16442;SDS011;8331;51.654;14.376;2022-11-20T08:40:35;21.30;;;13.43;;
16442;SDS011;8331;51.654;14.376;2022-11-20T08:43:02;26.47;;;16.00;;
16442;SDS011;8331;51.654;14.376;2022-11-20T08:45:28;23.97;;;15.13;;
16442;SDS011;8331;51.654;14.376;2022-11-20T08:48:00;19.83;;;13.20;;
16442;SDS011;8331;51.654;14.376;2022-11-20T08:50:27;23.93;;;14.00;;
16442;SDS011;8331;51.654;14.376;2022-11-20T08:52:54;22.30;;;14.17;;
16442;SDS011;8331;51.654;14.376;2022-11-20T08:55:20;19.70;;;13.93;;
16442;SDS011;8331;51.654;14.376;2022-11-20T08:57:47;25.13;;;15.07;;
16442;SDS011;8331;51.654;14.376;2022-11-20T09:00:16;24.00;;;14.30;;
16442;SDS011;8331;51.654;14.376;2022-11-20T09:02:43;26.17;;;15.00;;
16442;SDS011;8331;51.654;14.376;2022-11-20T09:05:09;20.97;;;13.77;;
16442;SDS011;8331;51.654;14.376;2022-11-20T09:07:36;23.20;;;14.90;;
16442;SDS011;8331;51.654;14.376;2022-11-20T09:10:03;25.50;;;15.40;;
16442;SDS011;8331;51.654;14.376;2022-11-20T09:12:49;26.93;;;15.20;;
16442;SDS011;8331;51.654;14.376;2022-11-20T09:15:17;26.80;;;16.40;;
16442;SDS011;8331;51.654;14.376;2022-11-20T09:17:56;23.50;;;15.10;;
16442;SDS011;8331;51.654;14.376;2022-11-20T09:20:24;23.50;;;14.80;;
16442;SDS011;8331;51.654;14.376;2022-11-20T09:22:51;21.90;;;14.53;;
16442;SDS011;8331;51.654;14.376;2022-11-20T09:25:18;24.23;;;14.90;;
16442;SDS011;8331;51.654;14.376;2022-11-20T09:27:45;22.30;;;15.30;;
16442;SDS011;8331;51.654;14.376;2022-11-20T09:30:15;22.17;;;15.47;;
16442;SDS011;8331;51.654;14.376;2022-11-20T09:32:42;20.63;;;14.37;;
16442;SDS011;8331;51.654;14.376;2022-11-20T09:35:09;24.50;;;15.87;;
16442;SDS011;8331;51.654;14.376;2022-11-20T09:37:37;22.70;;;14.13;;
16442;SDS011;8331;51.654;14.376;2022-11-20T09:40:03;23.70;;;15.60;;
16442;SDS011;8331;51.654;14.376;2022-11-20T09:52:34;20.23;;;13.30;;
16442;SDS011;8331;51.654;14.376;2022-11-20T09:55:03;19.03;;;12.67;;
16442;SDS011;8331;51.654;14.376;2022-11-20T09:57:36;18.30;;;12.57;;
16442;SDS011;8331;51.654;14.376;2022-11-20T10:00:05;19.77;;;13.23;;
16442;SDS011;8331;51.654;14.376;2022-11-20T10:05:11;16.07;;;11.33;;
16442;SDS011;8331;51.654;14.376;2022-11-20T10:07:44;19.30;;;12.77;;
16442;SDS011;8331;51.654;14.376;2022-11-20T10:10:18;19.83;;;12.53;;
16442;SDS011;8331;51.654;14.376;2022-11-20T10:26:06;19.53;;;13.17;;
16442;SDS011;8331;51.654;14.376;2022-11-20T10:31:39;19.37;;;12.73;;
16442;SDS011;8331;51.654;14.376;2022-11-20T10:34:12;17.43;;;11.97;;
16442;SDS011;8331;51.654;14.376;2022-11-20T10:36:46;18.37;;;11.90;;
16442;SDS011;8331;51.654;14.376;2022-11-20T10:41:49;18.57;;;12.30;;
16442;SDS011;8331;51.654;14.376;2022-11-20T10:44:17;16.60;;;12.07;;
16442;SDS011;8331;51.654;14.376;2022-11-20T10:47:05;17.40;;;11.70;;
16442;SDS011;8331;51.654;14.376;2022-11-20T10:49:36;19.80;;;12.13;;
16442;SDS011;8331;51.654;14.376;2022-11-20T10:52:49;17.33;;;11.73;;
16442;SDS011;8331;51.654;14.376;2022-11-20T10:55:02;19.33;;;12.17;;
16442;SDS011;8331;51.654;14.376;2022-11-20T11:00:15;16.27;;;11.63;;
16442;SDS011;8331;51.654;14.376;2022-11-20T11:02:47;24.10;;;12.90;;
16442;SDS011;8331;51.654;14.376;2022-11-20T11:07:48;19.93;;;12.70;;
16442;SDS011;8331;51.654;14.376;2022-11-20T11:10:20;18.37;;;12.57;;
16442;SDS011;8331;51.654;14.376;2022-11-20T11:12:49;19.20;;;11.83;;
16442;SDS011;8331;51.654;14.376;2022-11-20T11:15:28;18.13;;;12.30;;
16442;SDS011;8331;51.654;14.376;2022-11-20T11:17:55;20.57;;;13.67;;
16442;SDS011;8331;51.654;14.376;2022-11-20T11:20:22;16.93;;;11.60;;
16442;SDS011;8331;51.654;14.376;2022-11-20T11:22:51;16.77;;;11.67;;
16442;SDS011;8331;51.654;14.376;2022-11-20T11:25:25;25.17;;;16.13;;
16442;SDS011;8331;51.654;14.376;2022-11-20T11:27:52;18.70;;;13.20;;
16442;SDS011;8331;51.654;14.376;2022-11-20T11:30:22;19.93;;;13.87;;
16442;SDS011;8331;51.654;14.376;2022-11-20T11:32:48;18.10;;;13.10;;
16442;SDS011;8331;51.654;14.376;2022-11-20T11:35:19;19.30;;;14.30;;
16442;SDS011;8331;51.654;14.376;2022-11-20T11:37:46;19.23;;;13.37;;
16442;SDS011;8331;51.654;14.376;2022-11-20T11:40:14;19.37;;;12.53;;
16442;SDS011;8331;51.654;14.376;2022-11-20T11:42:54;18.50;;;13.23;;
16442;SDS011;8331;51.654;14.376;2022-11-20T11:45:20;18.57;;;12.20;;
16442;SDS011;8331;51.654;14.376;2022-11-20T11:47:47;17.37;;;12.50;;
16442;SDS011;8331;51.654;14.376;2022-11-20T11:50:25;17.87;;;12.67;;
16442;SDS011;8331;51.654;14.376;2022-11-20T11:52:55;17.73;;;11.90;;
16442;SDS011;8331;51.654;14.376;2022-11-20T11:55:44;22.20;;;15.63;;
16442;SDS011;8331;51.654;14.376;2022-11-20T12:00:39;14.00;;;10.70;;
16442;SDS011;8331;51.654;14.376;2022-11-20T12:03:41;14.23;;;10.40;;
16442;SDS011;8331;51.654;14.376;2022-11-20T12:06:01;15.60;;;10.97;;
16442;SDS011;8331;51.654;14.376;2022-11-20T12:08:31;14.97;;;10.77;;
16442;SDS011;8331;51.654;14.376;2022-11-20T12:11:01;14.53;;;10.93;;
16442;SDS011;8331;51.654;14.376;2022-11-20T12:15:59;16.23;;;10.80;;
16442;SDS011;8331;51.654;14.376;2022-11-20T12:18:27;13.50;;;10.83;;
16442;SDS011;8331;51.654;14.376;2022-11-20T12:20:58;12.77;;;10.33;;
16442;SDS011;8331;51.654;14.376;2022-11-20T12:23:35;18.33;;;12.70;;
16442;SDS011;8331;51.654;14.376;2022-11-20T12:26:10;16.40;;;10.73;;
16442;SDS011;8331;51.654;14.376;2022-11-20T12:31:35;14.87;;;10.83;;
16442;SDS011;8331;51.654;14.376;2022-11-20T12:41:44;13.47;;;10.23;;
16442;SDS011;8331;51.654;14.376;2022-11-20T12:52:43;12.73;;;9.50;;
16442;SDS011;8331;51.654;14.376;2022-11-20T12:55:13;13.23;;;9.13;;
16442;SDS011;8331;51.654;14.376;2022-11-20T13:00:19;11.80;;;9.50;;
16442;SDS011;8331;51.654;14.376;2022-11-20T13:05:36;12.47;;;9.10;;
16442;SDS011;8331;51.654;14.376;2022-11-20T13:08:03;12.90;;;9.20;;
16442;SDS011;8331;51.654;14.376;2022-11-20T13:16:02;10.43;;;8.43;;
16442;SDS011;8331;51.654;14.376;2022-11-20T13:18:33;12.57;;;9.10;;
16442;SDS011;8331;51.654;14.376;2022-11-20T13:21:12;11.70;;;8.73;;
16442;SDS011;8331;51.654;14.376;2022-11-20T13:23:39;12.33;;;8.80;;
16442;SDS011;8331;51.654;14.376;2022-11-20T13:26:06;12.90;;;9.13;;
16442;SDS011;8331;51.654;14.376;2022-11-20T13:28:40;8.93;;;7.93;;
16442;SDS011;8331;51.654;14.376;2022-11-20T13:31:10;12.23;;;8.30;;
16442;SDS011;8331;51.654;14.376;2022-11-20T13:33:50;11.57;;;8.57;;
16442;SDS011;8331;51.654;14.376;2022-11-20T13:36:24;10.50;;;8.17;;
16442;SDS011;8331;51.654;14.376;2022-11-20T13:38:53;10.10;;;7.53;;
16442;SDS011;8331;51.654;14.376;2022-11-20T13:41:27;10.07;;;7.93;;
16442;SDS011;8331;51.654;14.376;2022-11-20T13:43:57;8.87;;;7.30;;
16442;SDS011;8331;51.654;14.376;2022-11-20T13:46:34;8.97;;;7.53;;
16442;SDS011;8331;51.654;14.376;2022-11-20T13:49:05;8.27;;;7.07;;
16442;SDS011;8331;51.654;14.376;2022-11-20T13:51:46;7.77;;;6.70;;
16442;SDS011;8331;51.654;14.376;2022-11-20T14:02:08;7.57;;;6.80;;
16442;SDS011;8331;51.654;14.376;2022-11-20T14:04:38;11.23;;;9.97;;
16442;SDS011;8331;51.654;14.376;2022-11-20T14:07:07;9.33;;;7.60;;
16442;SDS011;8331;51.654;14.376;2022-11-20T14:09:35;10.10;;;8.50;;
16442;SDS011;8331;51.654;14.376;2022-11-20T14:12:02;7.53;;;6.30;;
16442;SDS011;8331;51.654;14.376;2022-11-20T14:14:30;7.30;;;6.50;;
16442;SDS011;8331;51.654;14.376;2022-11-20T14:17:06;9.60;;;7.00;;
16442;SDS011;8331;51.654;14.376;2022-11-20T14:19:33;8.20;;;6.57;;
16442;SDS011;8331;51.654;14.376;2022-11-20T14:24:34;8.10;;;7.30;;
16442;SDS011;8331;51.654;14.376;2022-11-20T14:27:00;14.57;;;7.30;;
16442;SDS011;8331;51.654;14.376;2022-11-20T14:29:29;9.07;;;7.70;;
16442;SDS011;8331;51.654;14.376;2022-11-20T14:31:59;8.10;;;7.20;;
16442;SDS011;8331;51.654;14.376;2022-11-20T14:34:27;8.13;;;7.33;;
16442;SDS011;8331;51.654;14.376;2022-11-20T14:37:00;8.23;;;7.40;;
16442;SDS011;8331;51.654;14.376;2022-11-20T14:39:41;9.00;;;7.30;;
16442;SDS011;8331;51.654;14.376;2022-11-20T14:42:26;7.33;;;6.57;;
16442;SDS011;8331;51.654;14.376;2022-11-20T14:44:57;8.77;;;7.43;;
16442;SDS011;8331;51.654;14.376;2022-11-20T14:47:25;8.43;;;7.47;;
16442;SDS011;8331;51.654;14.376;2022-11-20T14:49:52;9.73;;;7.60;;
16442;SDS011;8331;51.654;14.376;2022-11-20T14:52:20;10.00;;;7.43;;
16442;SDS011;8331;51.654;14.376;2022-11-20T14:54:48;9.50;;;7.97;;
16442;SDS011;8331;51.654;14.376;2022-11-20T14:57:22;11.10;;;8.10;;
16442;SDS011;8331;51.654;14.376;2022-11-20T14:59:49;8.40;;;6.93;;
16442;SDS011;8331;51.654;14.376;2022-11-20T15:02:16;10.03;;;7.97;;
16442;SDS011;8331;51.654;14.376;2022-11-20T15:04:46;10.03;;;8.47;;
16442;SDS011;8331;51.654;14.376;2022-11-20T15:07:23;11.43;;;8.33;;
16442;SDS011;8331;51.654;14.376;2022-11-20T15:10:09;10.37;;;8.63;;
16442;SDS011;8331;51.654;14.376;2022-11-20T15:12:46;12.10;;;8.57;;
16442;SDS011;8331;51.654;14.376;2022-11-20T15:15:17;10.63;;;8.73;;
16442;SDS011;8331;51.654;14.376;2022-11-20T15:17:45;12.17;;;8.60;;
16442;SDS011;8331;51.654;14.376;2022-11-20T15:20:13;11.73;;;8.27;;
16442;SDS011;8331;51.654;14.376;2022-11-20T15:22:40;12.43;;;8.73;;
16442;SDS011;8331;51.654;14.376;2022-11-20T15:25:14;12.00;;;9.40;;
16442;SDS011;8331;51.654;14.376;2022-11-20T15:27:41;13.47;;;9.10;;
16442;SDS011;8331;51.654;14.376;2022-11-20T15:30:12;12.97;;;9.40;;
16442;SDS011;8331;51.654;14.376;2022-11-20T15:32:39;11.33;;;8.97;;
16442;SDS011;8331;51.654;14.376;2022-11-20T15:35:06;11.77;;;9.07;;
16442;SDS011;8331;51.654;14.376;2022-11-20T15:37:32;13.60;;;9.27;;
16442;SDS011;8331;51.654;14.376;2022-11-20T15:39:59;14.13;;;9.27;;
16442;SDS011;8331;51.654;14.376;2022-11-20T15:42:25;13.30;;;9.80;;
16442;SDS011;8331;51.654;14.376;2022-11-20T15:44:52;14.43;;;10.33;;
16442;SDS011;8331;51.654;14.376;2022-11-20T15:47:19;14.33;;;10.30;;
16442;SDS011;8331;51.654;14.376;2022-11-20T15:49:47;16.50;;;11.53;;
16442;SDS011;8331;51.654;14.376;2022-11-20T15:52:13;16.80;;;11.37;;
16442;SDS011;8331;51.654;14.376;2022-11-20T15:54:40;16.53;;;11.73;;
16442;SDS011;8331;51.654;14.376;2022-11-20T15:57:07;18.77;;;13.03;;
16442;SDS011;8331;51.654;14.376;2022-11-20T15:59:33;16.53;;;11.50;;
16442;SDS011;8331;51.654;14.376;2022-11-20T16:02:04;18.83;;;13.23;;
16442;SDS011;8331;51.654;14.376;2022-11-20T16:04:31;17.97;;;12.70;;